Time;durP1;ratioP1;P1;durP2;ratioP2;P2;SDS_P1;SDS_P2;PMS_P1;PMS_P2;Temp;Humidity;BMP_temperature;BMP_pressure;BME280_temperature;BME280_humidity;BME280_pressure;Samples;Min_cycle;Max_cycle;Signal;HPM_P1;HPM_P2
2020/12/06 00:00:34;;;;;;;35.73;22.60;;;;;;;;;;4950177;28;20217;-79
2020/12/06 00:03:01;;;;;;;36.73;24.63;;;;;;;;;;4951487;28;20185;-79
2020/12/06 00:05:27;;;;;;;41.63;25.43;;;;;;;;;;4952774;28;20193;-79
2020/12/06 00:07:53;;;;;;;37.27;23.60;;;;;;;;;;4955648;28;20193;-78
2020/12/06 00:10:19;;;;;;;36.27;23.20;;;;;;;;;;4954937;28;20271;-77
2020/12/06 00:12:46;;;;;;;40.73;24.53;;;;;;;;;;4954854;28;20187;-78
2020/12/06 00:15:13;;;;;;;40.60;24.13;;;;;;;;;;4955692;28;20177;-79
2020/12/06 00:17:39;;;;;;;42.20;24.87;;;;;;;;;;4954702;28;20710;-78
2020/12/06 00:20:07;;;;;;;39.00;23.73;;;;;;;;;;4954415;28;20640;-79
2020/12/06 00:22:33;;;;;;;41.57;24.90;;;;;;;;;;4952986;28;20212;-78
2020/12/06 00:24:59;;;;;;;45.10;26.17;;;;;;;;;;4954560;28;20586;-77
2020/12/06 00:27:25;;;;;;;40.53;24.60;;;;;;;;;;4954999;28;20189;-78
2020/12/06 00:29:51;;;;;;;40.10;23.83;;;;;;;;;;4954997;28;20551;-78
2020/12/06 00:32:18;;;;;;;42.27;25.77;;;;;;;;;;4956491;28;20206;-78
2020/12/06 00:34:44;;;;;;;38.50;23.90;;;;;;;;;;4960368;28;20193;-79
2020/12/06 00:37:10;;;;;;;39.17;23.47;;;;;;;;;;4958436;28;20178;-78
2020/12/06 00:39:38;;;;;;;38.87;24.60;;;;;;;;;;4955780;28;20182;-78
2020/12/06 00:42:04;;;;;;;45.43;25.63;;;;;;;;;;4958729;28;20212;-79
2020/12/06 00:44:30;;;;;;;39.57;24.57;;;;;;;;;;4958268;28;20186;-79
2020/12/06 00:46:59;;;;;;;41.90;24.90;;;;;;;;;;4960056;28;20209;-79
2020/12/06 00:49:26;;;;;;;41.13;24.70;;;;;;;;;;4958667;29;20222;-79
2020/12/06 00:51:52;;;;;;;39.40;24.80;;;;;;;;;;4959385;28;20203;-78
2020/12/06 00:54:19;;;;;;;42.70;26.37;;;;;;;;;;4958977;28;20256;-78
2020/12/06 00:56:45;;;;;;;41.27;25.87;;;;;;;;;;4958464;28;20213;-79
2020/12/06 00:59:11;;;;;;;49.83;28.23;;;;;;;;;;4959843;28;20546;-79
2020/12/06 01:01:40;;;;;;;45.90;27.03;;;;;;;;;;4958239;28;20217;-79
2020/12/06 01:04:07;;;;;;;44.13;25.10;;;;;;;;;;4958621;28;20189;-79
2020/12/06 01:06:33;;;;;;;42.37;25.40;;;;;;;;;;4958766;29;20189;-78
2020/12/06 01:08:59;;;;;;;45.03;25.40;;;;;;;;;;4959393;28;20198;-78
2020/12/06 01:11:26;;;;;;;42.20;24.30;;;;;;;;;;4959424;28;20226;-78
2020/12/06 01:13:52;;;;;;;42.63;25.53;;;;;;;;;;4960269;28;20352;-79
2020/12/06 01:16:18;;;;;;;44.03;25.70;;;;;;;;;;4958605;28;20671;-79
2020/12/06 01:18:44;;;;;;;39.70;24.87;;;;;;;;;;4959679;28;20181;-78
2020/12/06 01:21:10;;;;;;;44.60;25.60;;;;;;;;;;4957927;28;20241;-78
2020/12/06 01:23:36;;;;;;;48.83;26.27;;;;;;;;;;4959909;28;20268;-77
2020/12/06 01:26:03;;;;;;;47.83;25.60;;;;;;;;;;4958169;28;20224;-77
2020/12/06 01:28:29;;;;;;;43.87;25.17;;;;;;;;;;4957537;29;20270;-78
2020/12/06 01:30:55;;;;;;;47.73;25.47;;;;;;;;;;4959222;28;20205;-79
2020/12/06 01:33:21;;;;;;;45.53;25.27;;;;;;;;;;4958410;28;20188;-79
2020/12/06 01:35:48;;;;;;;45.17;25.50;;;;;;;;;;4959122;28;20652;-78
2020/12/06 01:38:14;;;;;;;44.73;25.47;;;;;;;;;;4957681;28;20182;-78
2020/12/06 01:40:43;;;;;;;41.37;24.73;;;;;;;;;;4958954;28;20211;-77
2020/12/06 01:43:09;;;;;;;44.17;24.83;;;;;;;;;;4958716;28;20190;-77
2020/12/06 01:45:35;;;;;;;42.27;24.23;;;;;;;;;;4958789;28;20190;-77
2020/12/06 01:48:02;;;;;;;46.13;26.57;;;;;;;;;;4957931;28;20181;-78
2020/12/06 01:50:28;;;;;;;45.30;26.10;;;;;;;;;;4958819;28;20741;-78
2020/12/06 01:52:54;;;;;;;45.17;25.57;;;;;;;;;;4959452;28;20188;-79
2020/12/06 01:55:22;;;;;;;48.83;26.77;;;;;;;;;;4959570;28;20241;-77
2020/12/06 01:57:48;;;;;;;52.77;28.10;;;;;;;;;;4958588;28;20188;-79
2020/12/06 02:00:14;;;;;;;47.20;25.73;;;;;;;;;;4957058;28;20187;-77
2020/12/06 02:02:40;;;;;;;51.87;28.97;;;;;;;;;;4958175;28;20185;-79
2020/12/06 02:05:06;;;;;;;48.20;26.33;;;;;;;;;;4958861;28;20201;-78
2020/12/06 02:07:32;;;;;;;44.80;24.90;;;;;;;;;;4958340;28;20186;-78
2020/12/06 02:09:59;;;;;;;46.07;25.83;;;;;;;;;;4957460;28;20339;-78
2020/12/06 02:12:26;;;;;;;48.53;26.47;;;;;;;;;;4957977;28;20283;-78
2020/12/06 02:14:52;;;;;;;44.40;25.70;;;;;;;;;;4958043;28;20676;-77
2020/12/06 02:17:18;;;;;;;47.60;24.77;;;;;;;;;;4958028;28;20198;-78
2020/12/06 02:19:44;;;;;;;43.97;24.73;;;;;;;;;;4957376;28;20239;-77
2020/12/06 02:22:10;;;;;;;43.60;24.80;;;;;;;;;;4957565;28;20209;-78
2020/12/06 02:24:36;;;;;;;40.40;23.27;;;;;;;;;;4957685;28;20213;-78
2020/12/06 02:27:02;;;;;;;39.30;22.27;;;;;;;;;;4957983;28;20189;-77
2020/12/06 02:29:28;;;;;;;41.67;25.10;;;;;;;;;;4957543;28;20243;-78
2020/12/06 02:31:55;;;;;;;43.73;23.67;;;;;;;;;;4958026;28;20196;-78
2020/12/06 02:34:21;;;;;;;42.10;23.37;;;;;;;;;;4958909;28;20185;-78
2020/12/06 02:36:47;;;;;;;42.17;24.27;;;;;;;;;;4959562;28;20260;-79
2020/12/06 02:39:13;;;;;;;41.90;23.90;;;;;;;;;;4957945;28;20185;-77
2020/12/06 02:41:39;;;;;;;42.67;24.17;;;;;;;;;;4957841;28;20204;-78
2020/12/06 02:44:06;;;;;;;41.17;24.47;;;;;;;;;;4957819;28;20188;-78
2020/12/06 02:46:33;;;;;;;39.53;23.37;;;;;;;;;;4957332;28;20191;-77
2020/12/06 02:48:59;;;;;;;42.10;24.20;;;;;;;;;;4957905;28;20197;-77
2020/12/06 02:51:25;;;;;;;38.63;23.87;;;;;;;;;;4947908;28;20651;-77
2020/12/06 02:53:51;;;;;;;42.20;24.03;;;;;;;;;;4957715;28;20177;-79
2020/12/06 02:56:17;;;;;;;40.33;23.50;;;;;;;;;;4954998;28;20549;-78
2020/12/06 02:58:43;;;;;;;40.57;22.77;;;;;;;;;;4955314;28;20660;-78
2020/12/06 03:01:09;;;;;;;37.97;22.63;;;;;;;;;;4955991;28;20581;-77
2020/12/06 03:03:35;;;;;;;36.33;22.00;;;;;;;;;;4956261;28;20188;-78
2020/12/06 03:06:01;;;;;;;39.83;22.73;;;;;;;;;;4954781;28;20180;-78
2020/12/06 03:08:29;;;;;;;35.00;20.73;;;;;;;;;;4957759;28;20198;-78
2020/12/06 03:10:55;;;;;;;33.57;21.13;;;;;;;;;;4957272;28;20235;-78
2020/12/06 03:13:21;;;;;;;34.37;21.47;;;;;;;;;;4955613;28;20207;-77
2020/12/06 03:15:47;;;;;;;30.10;19.07;;;;;;;;;;4957215;28;20264;-76
2020/12/06 03:18:13;;;;;;;30.10;18.57;;;;;;;;;;4957020;28;20584;-78
2020/12/06 03:20:39;;;;;;;31.30;19.37;;;;;;;;;;4957889;28;20213;-80
2020/12/06 03:23:05;;;;;;;30.60;18.97;;;;;;;;;;4956245;28;20190;-78
2020/12/06 03:25:31;;;;;;;26.97;17.83;;;;;;;;;;4956287;29;20656;-79
2020/12/06 03:27:57;;;;;;;31.20;18.93;;;;;;;;;;4956982;28;20178;-78
2020/12/06 03:30:23;;;;;;;30.33;18.93;;;;;;;;;;4957352;28;20227;-78
2020/12/06 03:32:49;;;;;;;29.43;18.60;;;;;;;;;;4955196;28;20633;-79
2020/12/06 03:35:15;;;;;;;29.33;18.60;;;;;;;;;;4958052;28;20184;-78
2020/12/06 03:37:41;;;;;;;30.83;18.67;;;;;;;;;;4957269;28;20181;-79
2020/12/06 03:40:07;;;;;;;31.33;18.87;;;;;;;;;;4955793;29;20197;-77
2020/12/06 03:42:33;;;;;;;30.77;19.20;;;;;;;;;;4956689;28;20208;-77
2020/12/06 03:44:59;;;;;;;28.50;18.10;;;;;;;;;;4955383;28;20208;-78
2020/12/06 03:47:25;;;;;;;28.30;18.50;;;;;;;;;;4956536;28;20275;-77
2020/12/06 03:49:51;;;;;;;34.07;20.90;;;;;;;;;;4956676;28;20241;-78
2020/12/06 03:52:17;;;;;;;30.67;19.93;;;;;;;;;;4957318;28;20228;-77
2020/12/06 03:54:44;;;;;;;29.83;19.10;;;;;;;;;;4955003;28;20272;-77
2020/12/06 03:57:10;;;;;;;31.13;20.00;;;;;;;;;;4956084;28;20271;-76
2020/12/06 03:59:36;;;;;;;30.17;19.50;;;;;;;;;;4957344;28;20224;-78
2020/12/06 04:02:02;;;;;;;31.53;20.57;;;;;;;;;;4954950;28;20224;-78
2020/12/06 04:04:28;;;;;;;29.50;19.20;;;;;;;;;;4956725;28;20613;-79
2020/12/06 04:06:54;;;;;;;27.93;18.20;;;;;;;;;;4956642;28;20177;-77
2020/12/06 04:09:20;;;;;;;30.67;19.57;;;;;;;;;;4959995;28;20612;-79
2020/12/06 04:11:46;;;;;;;27.50;17.20;;;;;;;;;;4985118;23;20220;-78
2020/12/06 04:14:12;;;;;;;24.83;16.07;;;;;;;;;;4971595;28;20236;-76
2020/12/06 04:16:38;;;;;;;22.20;15.97;;;;;;;;;;4980684;28;20200;-78
2020/12/06 04:19:04;;;;;;;23.27;15.70;;;;;;;;;;4979248;28;20191;-78
2020/12/06 04:21:30;;;;;;;22.27;15.60;;;;;;;;;;4980370;28;20255;-78
2020/12/06 04:23:56;;;;;;;24.43;15.93;;;;;;;;;;4962407;28;20247;-78
2020/12/06 04:26:22;;;;;;;22.50;16.30;;;;;;;;;;4961168;29;20216;-78
2020/12/06 04:28:48;;;;;;;24.27;16.43;;;;;;;;;;4960839;28;20207;-81
2020/12/06 04:31:14;;;;;;;22.67;15.20;;;;;;;;;;4961052;29;20236;-77
2020/12/06 04:33:40;;;;;;;20.20;14.47;;;;;;;;;;4961023;28;20192;-79
2020/12/06 04:36:07;;;;;;;20.27;14.77;;;;;;;;;;4961330;29;20188;-78
2020/12/06 04:38:33;;;;;;;23.17;15.20;;;;;;;;;;4961197;28;20212;-78
2020/12/06 04:40:59;;;;;;;22.70;15.57;;;;;;;;;;4959487;29;20181;-78
2020/12/06 04:43:25;;;;;;;21.73;15.37;;;;;;;;;;4961011;28;20205;-78
2020/12/06 04:45:51;;;;;;;24.90;17.03;;;;;;;;;;4960562;28;20200;-78
2020/12/06 04:48:33;;;;;;;25.20;16.70;;;;;;;;;;4959479;29;20176;-78
2020/12/06 04:51:04;;;;;;;24.30;16.83;;;;;;;;;;4959402;29;20209;-78
2020/12/06 04:53:35;;;;;;;23.20;15.87;;;;;;;;;;4960940;28;20197;-79
2020/12/06 04:56:02;;;;;;;21.00;14.97;;;;;;;;;;4960913;28;20644;-78
2020/12/06 04:58:30;;;;;;;20.77;15.17;;;;;;;;;;4959183;29;20184;-78
2020/12/06 05:00:56;;;;;;;20.20;14.63;;;;;;;;;;4958037;28;20189;-78
2020/12/06 05:03:23;;;;;;;18.87;14.43;;;;;;;;;;4959695;28;20570;-79
2020/12/06 05:05:49;;;;;;;19.13;14.63;;;;;;;;;;4959743;28;20598;-78
2020/12/06 05:08:15;;;;;;;18.97;14.70;;;;;;;;;;4959199;28;20212;-80
2020/12/06 05:10:46;;;;;;;21.13;14.33;;;;;;;;;;4959180;28;20212;-78
2020/12/06 05:13:13;;;;;;;20.03;14.80;;;;;;;;;;4958839;28;20331;-79
2020/12/06 05:15:39;;;;;;;21.20;14.90;;;;;;;;;;4958573;29;20227;-78
2020/12/06 05:18:05;;;;;;;19.97;14.17;;;;;;;;;;4959676;28;20264;-78
2020/12/06 05:20:31;;;;;;;22.40;15.37;;;;;;;;;;4959916;28;20194;-79
2020/12/06 05:22:57;;;;;;;19.23;14.53;;;;;;;;;;4958825;28;20212;-78
2020/12/06 05:25:23;;;;;;;20.57;14.93;;;;;;;;;;4958679;29;20183;-78
2020/12/06 05:27:50;;;;;;;19.77;14.93;;;;;;;;;;4960106;28;20531;-79
2020/12/06 05:30:16;;;;;;;20.83;14.73;;;;;;;;;;4959832;28;20202;-77
2020/12/06 05:32:43;;;;;;;21.07;14.73;;;;;;;;;;4958361;28;20201;-78
2020/12/06 05:35:09;;;;;;;19.53;14.00;;;;;;;;;;4958651;29;20219;-78
2020/12/06 05:37:37;;;;;;;19.53;14.60;;;;;;;;;;4959339;29;20174;-78
2020/12/06 05:40:13;;;;;;;19.67;14.20;;;;;;;;;;4957922;29;20225;-77
2020/12/06 05:42:40;;;;;;;17.90;13.90;;;;;;;;;;4959577;28;20604;-77
2020/12/06 05:45:07;;;;;;;21.33;14.33;;;;;;;;;;4958435;29;20534;-78
2020/12/06 05:47:33;;;;;;;20.40;14.50;;;;;;;;;;4959213;28;20276;-78
2020/12/06 05:49:59;;;;;;;21.50;14.30;;;;;;;;;;4959324;28;20240;-78
2020/12/06 05:52:29;;;;;;;17.87;13.67;;;;;;;;;;4959595;28;20205;-79
2020/12/06 05:54:58;;;;;;;19.90;13.93;;;;;;;;;;4959614;28;20712;-77
2020/12/06 05:57:28;;;;;;;15.07;13.00;;;;;;;;;;4959539;28;20236;-77
2020/12/06 05:59:58;;;;;;;15.33;12.67;;;;;;;;;;4959161;29;20185;-79
2020/12/06 06:02:25;;;;;;;17.90;13.53;;;;;;;;;;4958714;28;20292;-79
2020/12/06 06:04:52;;;;;;;16.93;13.17;;;;;;;;;;4959371;29;20185;-77
2020/12/06 06:07:22;;;;;;;17.40;13.70;;;;;;;;;;4959347;28;20662;-77
2020/12/06 06:09:50;;;;;;;17.10;12.70;;;;;;;;;;4959789;29;20243;-78
2020/12/06 06:12:22;;;;;;;16.17;12.87;;;;;;;;;;4960339;28;20212;-79
2020/12/06 06:14:49;;;;;;;16.47;13.50;;;;;;;;;;4958934;29;20220;-79
2020/12/06 06:17:16;;;;;;;17.07;12.90;;;;;;;;;;4960298;28;20185;-78
2020/12/06 06:19:44;;;;;;;13.13;11.70;;;;;;;;;;4959137;28;20324;-77
2020/12/06 06:22:11;;;;;;;12.90;11.40;;;;;;;;;;4958953;28;20674;-78
2020/12/06 06:24:38;;;;;;;12.77;11.27;;;;;;;;;;4958611;28;20208;-79
2020/12/06 06:27:04;;;;;;;11.70;10.40;;;;;;;;;;4958993;29;20200;-77
2020/12/06 06:29:30;;;;;;;11.40;10.13;;;;;;;;;;4958882;28;20189;-78
2020/12/06 06:31:57;;;;;;;12.43;11.13;;;;;;;;;;4957924;28;20182;-78
2020/12/06 06:34:24;;;;;;;13.07;11.20;;;;;;;;;;4957980;29;20178;-78
2020/12/06 06:36:50;;;;;;;13.07;10.97;;;;;;;;;;4957779;29;20593;-78
2020/12/06 06:39:20;;;;;;;13.63;11.50;;;;;;;;;;4958902;28;20173;-77
2020/12/06 06:41:59;;;;;;;12.03;10.83;;;;;;;;;;4957144;28;20252;-77
2020/12/06 06:44:27;;;;;;;13.90;12.10;;;;;;;;;;4958338;28;20189;-78
2020/12/06 06:46:53;;;;;;;15.20;12.07;;;;;;;;;;4958358;28;20232;-78
2020/12/06 06:49:20;;;;;;;15.40;11.73;;;;;;;;;;4958509;28;20264;-78
2020/12/06 06:51:53;;;;;;;11.20;9.70;;;;;;;;;;4958304;28;20213;-78
2020/12/06 06:54:29;;;;;;;11.13;10.00;;;;;;;;;;4957023;29;20193;-78
2020/12/06 06:56:56;;;;;;;12.07;10.63;;;;;;;;;;4957805;29;20189;-77
2020/12/06 06:59:37;;;;;;;11.73;10.07;;;;;;;;;;4958212;28;20181;-78
2020/12/06 07:02:04;;;;;;;12.57;11.03;;;;;;;;;;4958019;28;20204;-77
2020/12/06 07:04:30;;;;;;;13.33;10.80;;;;;;;;;;4957609;28;20278;-78
2020/12/06 07:06:56;;;;;;;12.90;11.10;;;;;;;;;;4958310;28;20544;-78
2020/12/06 07:09:24;;;;;;;11.90;10.67;;;;;;;;;;4958172;28;20185;-77
2020/12/06 07:11:50;;;;;;;13.10;11.10;;;;;;;;;;4956784;28;20197;-77
2020/12/06 07:14:17;;;;;;;13.27;10.97;;;;;;;;;;4957001;29;20193;-77
2020/12/06 07:16:43;;;;;;;12.37;11.07;;;;;;;;;;4957027;29;20593;-79
2020/12/06 07:19:09;;;;;;;11.77;10.50;;;;;;;;;;4958280;28;20554;-77
2020/12/06 07:21:36;;;;;;;12.63;11.07;;;;;;;;;;4957266;28;20189;-78
2020/12/06 07:24:03;;;;;;;12.07;10.83;;;;;;;;;;4957327;28;20201;-77
2020/12/06 07:26:29;;;;;;;11.80;10.53;;;;;;;;;;4958213;28;20173;-78
2020/12/06 07:28:56;;;;;;;11.77;10.13;;;;;;;;;;4948665;28;20181;-79
2020/12/06 07:31:23;;;;;;;9.20;8.40;;;;;;;;;;4956796;29;20208;-78
2020/12/06 07:33:50;;;;;;;9.80;8.80;;;;;;;;;;4956778;28;20260;-78
2020/12/06 07:36:16;;;;;;;9.30;8.30;;;;;;;;;;4956527;28;20259;-77
2020/12/06 07:38:43;;;;;;;8.67;7.87;;;;;;;;;;4954889;29;20177;-79
2020/12/06 07:41:10;;;;;;;8.43;7.63;;;;;;;;;;4957592;28;20606;-78
2020/12/06 07:43:36;;;;;;;8.27;7.47;;;;;;;;;;4958166;28;20232;-78
2020/12/06 07:46:12;;;;;;;8.50;7.70;;;;;;;;;;4957452;28;20177;-77
2020/12/06 07:48:38;;;;;;;7.30;6.60;;;;;;;;;;4957578;28;20185;-79
2020/12/06 07:51:04;;;;;;;7.87;7.07;;;;;;;;;;4957353;29;20212;-78
2020/12/06 07:53:42;;;;;;;8.30;7.50;;;;;;;;;;4947686;28;20199;-79
2020/12/06 07:56:09;;;;;;;9.37;8.43;;;;;;;;;;4945981;29;20185;-80
2020/12/06 07:58:36;;;;;;;9.03;8.17;;;;;;;;;;4959379;28;20648;-80
2020/12/06 08:01:02;;;;;;;8.37;7.60;;;;;;;;;;4957254;28;20178;-79
2020/12/06 08:03:28;;;;;;;8.43;7.63;;;;;;;;;;4957210;28;20216;-79
2020/12/06 08:05:55;;;;;;;7.80;7.10;;;;;;;;;;4957519;28;20558;-79
2020/12/06 08:08:21;;;;;;;7.60;6.60;;;;;;;;;;4956323;29;20185;-79
2020/12/06 08:10:51;;;;;;;7.23;6.53;;;;;;;;;;4956142;29;20228;-79
2020/12/06 08:13:18;;;;;;;6.40;5.80;;;;;;;;;;4957398;28;20695;-79
2020/12/06 08:15:46;;;;;;;9.23;7.23;;;;;;;;;;4957316;28;20197;-78
2020/12/06 08:18:17;;;;;;;10.13;9.20;;;;;;;;;;4957572;28;20173;-78
2020/12/06 08:20:55;;;;;;;9.90;8.90;;;;;;;;;;4957171;28;20216;-79
2020/12/06 08:23:36;;;;;;;8.67;7.87;;;;;;;;;;4957279;28;20201;-78
2020/12/06 08:26:02;;;;;;;8.40;7.57;;;;;;;;;;4956351;28;20197;-78
2020/12/06 08:28:29;;;;;;;6.67;6.07;;;;;;;;;;4957463;28;20706;-77
2020/12/06 08:30:55;;;;;;;6.73;6.13;;;;;;;;;;4955177;29;20608;-78
2020/12/06 08:33:25;;;;;;;8.80;8.00;;;;;;;;;;4957480;28;20204;-78
2020/12/06 08:35:52;;;;;;;9.80;8.90;;;;;;;;;;4956316;29;20179;-79
2020/12/06 08:38:19;;;;;;;6.87;6.27;;;;;;;;;;4947744;29;20181;-77
2020/12/06 08:41:01;;;;;;;7.37;6.67;;;;;;;;;;4955704;28;20175;-78
2020/12/06 08:43:45;;;;;;;8.30;7.60;;;;;;;;;;4956313;28;20200;-78
2020/12/06 08:46:12;;;;;;;7.87;7.17;;;;;;;;;;4956741;28;20216;-78
2020/12/06 08:48:39;;;;;;;6.83;6.23;;;;;;;;;;4957024;28;20316;-78
2020/12/06 08:51:06;;;;;;;5.93;5.43;;;;;;;;;;4957986;28;20236;-79
2020/12/06 08:53:45;;;;;;;5.77;5.27;;;;;;;;;;4957518;28;20675;-79
2020/12/06 08:56:29;;;;;;;6.07;5.57;;;;;;;;;;4960570;29;20201;-78
2020/12/06 08:59:00;;;;;;;6.87;5.67;;;;;;;;;;4960862;29;20174;-78
2020/12/06 09:01:26;;;;;;;5.87;5.37;;;;;;;;;;4960451;29;20240;-79
2020/12/06 09:03:53;;;;;;;6.20;5.60;;;;;;;;;;4960643;28;20201;-78
2020/12/06 09:06:19;;;;;;;6.63;6.03;;;;;;;;;;4960545;28;20240;-78
2020/12/06 09:08:45;;;;;;;6.53;5.93;;;;;;;;;;4959148;29;20690;-78
2020/12/06 09:11:15;;;;;;;6.50;5.90;;;;;;;;;;4960540;28;20197;-79
2020/12/06 09:13:41;;;;;;;5.67;5.17;;;;;;;;;;4959887;28;20300;-78
2020/12/06 09:16:07;;;;;;;5.70;5.20;;;;;;;;;;4959625;28;20184;-78
2020/12/06 09:18:33;;;;;;;5.77;5.27;;;;;;;;;;4960088;28;20187;-78
2020/12/06 09:21:00;;;;;;;6.00;5.50;;;;;;;;;;4959631;28;20652;-78
2020/12/06 09:23:26;;;;;;;7.80;7.07;;;;;;;;;;4959924;28;20209;-78
2020/12/06 09:25:52;;;;;;;5.47;5.03;;;;;;;;;;4958941;28;20296;-79
2020/12/06 09:28:18;;;;;;;6.20;5.70;;;;;;;;;;4959183;28;20541;-79
2020/12/06 09:30:45;;;;;;;6.50;5.90;;;;;;;;;;4960111;28;20274;-78
2020/12/06 09:33:11;;;;;;;5.47;5.03;;;;;;;;;;4960197;28;20205;-78
2020/12/06 09:35:37;;;;;;;8.33;7.23;;;;;;;;;;4960057;28;20187;-79
2020/12/06 09:38:03;;;;;;;6.60;6.00;;;;;;;;;;4958551;29;20217;-78
2020/12/06 09:40:29;;;;;;;5.80;5.17;;;;;;;;;;4958614;29;20625;-78
2020/12/06 09:42:55;;;;;;;6.10;5.60;;;;;;;;;;4958429;28;20205;-78
2020/12/06 09:45:21;;;;;;;6.10;5.60;;;;;;;;;;4958266;29;20632;-79
2020/12/06 09:47:47;;;;;;;138.33;55.30;;;;;;;;;;4958414;28;20185;-79
2020/12/06 09:50:13;;;;;;;5.90;5.40;;;;;;;;;;4958850;28;20219;-77
2020/12/06 09:52:39;;;;;;;4.53;4.23;;;;;;;;;;4957319;29;20256;-79
2020/12/06 09:55:05;;;;;;;5.53;5.13;;;;;;;;;;4957377;29;20181;-78
2020/12/06 09:57:31;;;;;;;5.30;4.90;;;;;;;;;;4956956;29;20181;-78
2020/12/06 09:59:57;;;;;;;5.70;5.30;;;;;;;;;;4957647;28;20307;-78
2020/12/06 10:02:23;;;;;;;5.30;4.90;;;;;;;;;;4957689;28;20762;-78
2020/12/06 10:04:49;;;;;;;5.00;4.60;;;;;;;;;;4957987;28;20189;-79
2020/12/06 10:07:15;;;;;;;6.03;5.53;;;;;;;;;;4956466;29;20177;-79
2020/12/06 10:09:42;;;;;;;5.07;4.67;;;;;;;;;;4958213;28;20204;-79
2020/12/06 10:12:08;;;;;;;6.00;5.40;;;;;;;;;;4957342;29;20224;-77
2020/12/06 10:14:34;;;;;;;6.00;5.50;;;;;;;;;;4988247;23;20259;-79
2020/12/06 10:17:00;;;;;;;7.53;4.97;;;;;;;;;;4974518;28;20184;-81
2020/12/06 10:19:27;;;;;;;5.40;5.00;;;;;;;;;;4970354;28;20185;-79
2020/12/06 10:21:53;;;;;;;5.97;5.57;;;;;;;;;;4968947;28;20188;-79
2020/12/06 10:24:19;;;;;;;6.43;5.93;;;;;;;;;;4957028;28;20209;-79
2020/12/06 10:26:50;;;;;;;7.63;6.93;;;;;;;;;;4957656;28;20213;-79
2020/12/06 10:29:16;;;;;;;7.90;7.20;;;;;;;;;;4957007;28;20177;-79
2020/12/06 10:31:42;;;;;;;8.10;7.40;;;;;;;;;;4953984;28;20216;-80
2020/12/06 10:34:08;;;;;;;7.27;6.67;;;;;;;;;;4954160;28;20201;-79
2020/12/06 10:36:34;;;;;;;7.53;6.93;;;;;;;;;;4955368;28;20583;-80
2020/12/06 10:39:00;;;;;;;7.53;6.83;;;;;;;;;;4957826;28;20181;-79
2020/12/06 10:41:27;;;;;;;9.30;7.97;;;;;;;;;;4956132;28;20592;-79
2020/12/06 10:43:53;;;;;;;7.73;7.03;;;;;;;;;;4951874;28;20216;-80
2020/12/06 10:46:19;;;;;;;8.53;7.70;;;;;;;;;;4957299;28;20181;-80
2020/12/06 10:48:45;;;;;;;7.40;6.80;;;;;;;;;;4953484;29;20188;-80
2020/12/06 10:51:12;;;;;;;7.77;7.10;;;;;;;;;;4960585;28;20207;-78
2020/12/06 10:53:38;;;;;;;8.13;7.43;;;;;;;;;;4951064;28;20234;-79
2020/12/06 10:56:04;;;;;;;8.90;8.10;;;;;;;;;;4950011;28;20623;-80
2020/12/06 10:58:33;;;;;;;8.40;7.60;;;;;;;;;;4962175;28;20210;-80
2020/12/06 11:00:59;;;;;;;8.93;8.13;;;;;;;;;;4950627;29;20205;-80
2020/12/06 11:03:25;;;;;;;8.13;7.43;;;;;;;;;;4954472;28;20288;-80
2020/12/06 11:05:53;;;;;;;7.77;7.07;;;;;;;;;;4953997;29;20216;-80
2020/12/06 11:08:29;;;;;;;;;;;;;;;;;;;;;
2020/12/06 11:10:55;;;;;;;8.10;7.40;;;;;;;;;;4955664;28;20570;-80
2020/12/06 11:13:21;;;;;;;7.93;7.23;;;;;;;;;;4952845;29;20240;-78
2020/12/06 11:15:47;;;;;;;8.33;7.63;;;;;;;;;;4950666;29;20181;-81
2020/12/06 11:18:13;;;;;;;8.40;7.60;;;;;;;;;;4955319;28;20188;-79
2020/12/06 11:20:39;;;;;;;8.00;7.30;;;;;;;;;;4959303;28;20185;-80
2020/12/06 11:23:06;;;;;;;7.93;7.23;;;;;;;;;;4957445;28;20209;-79
2020/12/06 11:25:32;;;;;;;8.30;7.60;;;;;;;;;;4959475;28;20187;-79
2020/12/06 11:27:59;;;;;;;8.40;7.60;;;;;;;;;;4955562;28;20182;-80
2020/12/06 11:30:24;;;;;;;9.17;8.37;;;;;;;;;;4952974;28;20241;-80
2020/12/06 11:32:51;;;;;;;9.40;8.50;;;;;;;;;;4957341;28;20790;-80
2020/12/06 11:35:18;;;;;;;9.37;8.13;;;;;;;;;;4948094;29;20211;-78
2020/12/06 11:37:44;;;;;;;9.90;8.90;;;;;;;;;;4953717;29;20177;-78
2020/12/06 11:40:10;;;;;;;10.07;9.07;;;;;;;;;;4950309;28;20672;-78
2020/12/06 11:42:36;;;;;;;9.40;8.47;;;;;;;;;;4945499;29;20186;-79
2020/12/06 11:45:02;;;;;;;9.07;8.17;;;;;;;;;;4950345;29;20244;-79
2020/12/06 11:47:31;;;;;;;9.87;8.73;;;;;;;;;;4950219;28;20241;-81
2020/12/06 11:49:58;;;;;;;9.67;8.77;;;;;;;;;;4953200;29;20296;-80
2020/12/06 11:52:29;;;;;;;12.97;10.03;;;;;;;;;;4950371;28;20665;-80
2020/12/06 11:54:56;;;;;;;11.37;9.57;;;;;;;;;;4952869;28;20240;-79
2020/12/06 11:57:22;;;;;;;11.07;9.97;;;;;;;;;;4951064;28;20647;-77
2020/12/06 11:59:48;;;;;;;11.43;10.23;;;;;;;;;;4953471;29;20194;-79
2020/12/06 12:02:14;;;;;;;11.00;9.90;;;;;;;;;;4957103;28;20186;-78
2020/12/06 12:04:44;;;;;;;10.40;9.40;;;;;;;;;;4952293;28;20232;-78
2020/12/06 12:07:15;;;;;;;10.03;9.13;;;;;;;;;;4953006;29;20188;-78
2020/12/06 12:09:41;;;;;;;10.87;9.77;;;;;;;;;;4948016;28;20182;-78
2020/12/06 12:12:07;;;;;;;9.33;8.43;;;;;;;;;;4964098;28;20666;-79
2020/12/06 12:14:34;;;;;;;10.60;9.00;;;;;;;;;;4950522;28;20213;-80
2020/12/06 12:16:59;;;;;;;9.70;8.73;;;;;;;;;;4942032;29;20182;-79
2020/12/06 12:19:32;;;;;;;9.77;8.87;;;;;;;;;;4951558;28;20192;-79
2020/12/06 12:22:04;;;;;;;11.47;10.27;;;;;;;;;;4950617;29;20265;-78
2020/12/06 12:24:31;;;;;;;11.97;10.67;;;;;;;;;;4949794;29;20205;-78
2020/12/06 12:26:58;;;;;;;13.07;10.47;;;;;;;;;;4950000;28;20185;-79
2020/12/06 12:29:24;;;;;;;10.53;9.43;;;;;;;;;;4951827;28;20308;-80
2020/12/06 12:31:51;;;;;;;10.00;9.00;;;;;;;;;;4943633;28;20208;-78
2020/12/06 12:34:17;;;;;;;9.60;8.70;;;;;;;;;;4951912;28;20206;-78
2020/12/06 12:36:44;;;;;;;8.60;7.70;;;;;;;;;;4951924;28;20177;-78
2020/12/06 12:39:14;;;;;;;8.90;8.00;;;;;;;;;;4957004;29;20189;-78
2020/12/06 12:41:40;;;;;;;9.93;9.00;;;;;;;;;;4960718;28;20181;-79
2020/12/06 12:44:07;;;;;;;14.10;10.00;;;;;;;;;;4961570;28;20211;-79
2020/12/06 12:46:33;;;;;;;10.30;9.00;;;;;;;;;;4960565;28;20210;-79
2020/12/06 12:49:00;;;;;;;9.40;8.50;;;;;;;;;;4960266;29;20189;-79
2020/12/06 12:51:29;;;;;;;9.30;8.47;;;;;;;;;;4961242;28;20209;-79
2020/12/06 12:53:56;;;;;;;10.00;9.10;;;;;;;;;;4959340;28;20204;-79
2020/12/06 12:56:23;;;;;;;10.27;9.37;;;;;;;;;;4960992;28;20177;-79
2020/12/06 12:58:49;;;;;;;11.87;10.40;;;;;;;;;;4959066;29;20169;-79
2020/12/06 13:01:19;;;;;;;12.13;10.73;;;;;;;;;;4961549;28;20529;-79
2020/12/06 13:03:45;;;;;;;10.93;9.87;;;;;;;;;;4959266;29;20201;-79
2020/12/06 13:06:11;;;;;;;10.87;9.87;;;;;;;;;;4960554;28;20558;-79
2020/12/06 13:08:37;;;;;;;11.70;9.97;;;;;;;;;;4952111;28;20191;-79
2020/12/06 13:11:03;;;;;;;10.83;9.73;;;;;;;;;;4955263;28;20226;-78
2020/12/06 13:13:29;;;;;;;11.60;10.40;;;;;;;;;;4955813;28;20300;-78
2020/12/06 13:15:55;;;;;;;13.60;12.23;;;;;;;;;;4960317;29;20210;-78
2020/12/06 13:18:21;;;;;;;13.47;12.07;;;;;;;;;;4960879;29;20674;-78
2020/12/06 13:20:47;;;;;;;11.57;10.37;;;;;;;;;;4962952;28;20182;-79
2020/12/06 13:23:14;;;;;;;11.43;10.20;;;;;;;;;;4963151;28;20205;-79
2020/12/06 13:25:40;;;;;;;11.17;10.07;;;;;;;;;;4961187;28;20256;-80
2020/12/06 13:28:09;;;;;;;10.80;9.80;;;;;;;;;;4960869;29;20251;-79
2020/12/06 13:30:37;;;;;;;10.70;9.60;;;;;;;;;;4960779;28;20201;-79
2020/12/06 13:33:03;;;;;;;9.90;8.90;;;;;;;;;;4960198;28;20217;-80
2020/12/06 13:35:29;;;;;;;10.77;9.77;;;;;;;;;;4959715;29;20181;-79
2020/12/06 13:37:55;;;;;;;10.73;9.63;;;;;;;;;;4957994;28;20251;-79
2020/12/06 13:40:21;;;;;;;11.40;10.30;;;;;;;;;;4957890;28;20180;-79
2020/12/06 13:42:48;;;;;;;17.03;12.90;;;;;;;;;;4951828;28;20252;-81
2020/12/06 13:45:15;;;;;;;16.67;12.97;;;;;;;;;;4959306;29;20177;-80
2020/12/06 13:47:41;;;;;;;13.60;12.17;;;;;;;;;;4960707;29;20264;-79
2020/12/06 13:50:09;;;;;;;14.27;12.17;;;;;;;;;;4960625;29;20231;-79
2020/12/06 13:52:35;;;;;;;13.10;11.57;;;;;;;;;;4960897;28;20228;-80
2020/12/06 13:55:02;;;;;;;14.73;12.60;;;;;;;;;;4960502;28;20196;-80
2020/12/06 13:57:28;;;;;;;16.63;12.60;;;;;;;;;;4961957;29;20173;-80
2020/12/06 13:59:54;;;;;;;17.70;12.50;;;;;;;;;;4962323;28;20181;-80
2020/12/06 14:02:23;;;;;;;13.87;11.87;;;;;;;;;;4963013;29;20180;-81
2020/12/06 14:04:49;;;;;;;16.27;12.77;;;;;;;;;;4962909;29;20208;-82
2020/12/06 14:07:16;;;;;;;14.20;12.30;;;;;;;;;;4960696;28;20178;-81
2020/12/06 14:09:42;;;;;;;14.47;12.33;;;;;;;;;;4947753;29;20181;-80
2020/12/06 14:12:08;;;;;;;15.70;12.73;;;;;;;;;;4964954;28;20173;-81
2020/12/06 14:14:41;;;;;;;15.20;13.07;;;;;;;;;;4963157;28;20216;-81
2020/12/06 14:17:07;;;;;;;14.53;12.27;;;;;;;;;;4963692;28;20185;-81
2020/12/06 14:19:33;;;;;;;16.07;12.97;;;;;;;;;;4964509;28;20181;-81
2020/12/06 14:21:59;;;;;;;14.53;12.33;;;;;;;;;;4967191;28;20177;-80
2020/12/06 14:24:25;;;;;;;12.70;11.27;;;;;;;;;;4948619;29;20682;-79